sensor_id;sensor_type;location;lat;lon;timestamp;pressure;altitude;pressure_sealevel;temperature
77418;BMP280;66490;51.484;0.026;2023-07-22T00:12:39;101294.66;;;15.32
77418;BMP280;66490;51.484;0.026;2023-07-22T00:18:58;101273.78;;;15.12
77418;BMP280;66490;51.484;0.026;2023-07-22T00:22:12;101253.63;;;15.02
77418;BMP280;66490;51.484;0.026;2023-07-22T00:25:29;101295.88;;;15.24
77418;BMP280;66490;51.484;0.026;2023-07-22T00:28:48;101294.72;;;15.22
77418;BMP280;66490;51.484;0.026;2023-07-22T00:32:09;101246.34;;;14.85
77418;BMP280;66490;51.484;0.026;2023-07-22T00:35:13;101287.34;;;15.15
77418;BMP280;66490;51.484;0.026;2023-07-22T00:38:13;101284.63;;;15.19
77418;BMP280;66490;51.484;0.026;2023-07-22T00:49:03;101280.75;;;15.16
77418;BMP280;66490;51.484;0.026;2023-07-22T00:51:56;101244.00;;;14.87
77418;BMP280;66490;51.484;0.026;2023-07-22T00:54:42;101235.50;;;14.78
77418;BMP280;66490;51.484;0.026;2023-07-22T00:57:36;101275.78;;;15.04
77418;BMP280;66490;51.484;0.026;2023-07-22T01:00:52;101244.38;;;14.85
77418;BMP280;66490;51.484;0.026;2023-07-22T01:03:50;101271.50;;;15.03
77418;BMP280;66490;51.484;0.026;2023-07-22T01:06:36;101240.44;;;14.93
77418;BMP280;66490;51.484;0.026;2023-07-22T01:09:23;101214.94;;;14.70
77418;BMP280;66490;51.484;0.026;2023-07-22T01:12:11;101259.03;;;15.06
77418;BMP280;66490;51.484;0.026;2023-07-22T01:15:06;101248.97;;;14.99
77418;BMP280;66490;51.484;0.026;2023-07-22T01:17:55;101223.84;;;14.77
77418;BMP280;66490;51.484;0.026;2023-07-22T01:21:10;101249.00;;;14.92
77418;BMP280;66490;51.484;0.026;2023-07-22T01:24:06;101230.44;;;14.80
77418;BMP280;66490;51.484;0.026;2023-07-22T01:26:53;101192.44;;;14.65
77418;BMP280;66490;51.484;0.026;2023-07-22T01:29:38;101227.34;;;14.81
77418;BMP280;66490;51.484;0.026;2023-07-22T01:32:24;101217.28;;;14.68
77418;BMP280;66490;51.484;0.026;2023-07-22T01:35:10;101238.56;;;14.87
77418;BMP280;66490;51.484;0.026;2023-07-22T01:37:58;101221.91;;;14.71
77418;BMP280;66490;51.484;0.026;2023-07-22T01:40:49;101239.69;;;14.93
77418;BMP280;66490;51.484;0.026;2023-07-22T01:43:39;101233.91;;;14.84
77418;BMP280;66490;51.484;0.026;2023-07-22T01:46:23;101207.25;;;14.57
77418;BMP280;66490;51.484;0.026;2023-07-22T01:49:11;101235.13;;;14.69
77418;BMP280;66490;51.484;0.026;2023-07-22T01:52:00;101229.31;;;14.67
77418;BMP280;66490;51.484;0.026;2023-07-22T01:54:45;101233.56;;;14.68
77418;BMP280;66490;51.484;0.026;2023-07-22T01:57:30;101196.00;;;14.41
77418;BMP280;66490;51.484;0.026;2023-07-22T02:00:20;101181.69;;;14.37
77418;BMP280;66490;51.484;0.026;2023-07-22T02:03:05;101204.13;;;14.55
77418;BMP280;66490;51.484;0.026;2023-07-22T02:06:01;101225.03;;;14.69
77418;BMP280;66490;51.484;0.026;2023-07-22T02:08:45;101203.34;;;14.55
77418;BMP280;66490;51.484;0.026;2023-07-22T02:11:32;101177.00;;;14.41
77418;BMP280;66490;51.484;0.026;2023-07-22T02:14:17;101173.53;;;14.34
77418;BMP280;66490;51.484;0.026;2023-07-22T02:17:03;101175.84;;;14.42
77418;BMP280;66490;51.484;0.026;2023-07-22T02:19:47;101207.19;;;14.64
77418;BMP280;66490;51.484;0.026;2023-07-22T02:22:32;101167.69;;;14.42
77418;BMP280;66490;51.484;0.026;2023-07-22T02:25:16;101192.47;;;14.62
77418;BMP280;66490;51.484;0.026;2023-07-22T02:28:03;101168.06;;;14.48
77418;BMP280;66490;51.484;0.026;2023-07-22T02:30:49;101180.09;;;14.57
77418;BMP280;66490;51.484;0.026;2023-07-22T02:33:36;101179.28;;;14.60
77418;BMP280;66490;51.484;0.026;2023-07-22T02:36:23;101177.72;;;14.52
77418;BMP280;66490;51.484;0.026;2023-07-22T02:39:07;101194.03;;;14.63
77418;BMP280;66490;51.484;0.026;2023-07-22T02:41:53;101187.81;;;14.62
77418;BMP280;66490;51.484;0.026;2023-07-22T02:44:38;101150.66;;;14.31
77418;BMP280;66490;51.484;0.026;2023-07-22T02:47:32;101162.25;;;14.42
77418;BMP280;66490;51.484;0.026;2023-07-22T02:50:18;101177.72;;;14.59
77418;BMP280;66490;51.484;0.026;2023-07-22T02:53:02;101153.34;;;14.45
77418;BMP280;66490;51.484;0.026;2023-07-22T02:55:46;101162.22;;;14.53
77418;BMP280;66490;51.484;0.026;2023-07-22T02:58:34;101159.97;;;14.37
77418;BMP280;66490;51.484;0.026;2023-07-22T03:01:20;101159.19;;;14.33
77418;BMP280;66490;51.484;0.026;2023-07-22T03:04:14;101148.31;;;14.30
77418;BMP280;66490;51.484;0.026;2023-07-22T03:07:00;101189.78;;;14.51
77418;BMP280;66490;51.484;0.026;2023-07-22T03:09:45;101181.25;;;14.49
77418;BMP280;66490;51.484;0.026;2023-07-22T03:12:30;101183.97;;;14.49
77418;BMP280;66490;51.484;0.026;2023-07-22T03:15:14;101152.22;;;14.28
77418;BMP280;66490;51.484;0.026;2023-07-22T03:17:59;101182.44;;;14.41
77418;BMP280;66490;51.484;0.026;2023-07-22T03:20:46;101154.56;;;14.23
77418;BMP280;66490;51.484;0.026;2023-07-22T03:23:31;101159.59;;;14.24
77418;BMP280;66490;51.484;0.026;2023-07-22T03:26:15;101191.72;;;14.47
77418;BMP280;66490;51.484;0.026;2023-07-22T03:29:00;101170.03;;;14.33
77418;BMP280;66490;51.484;0.026;2023-07-22T03:31:44;101191.34;;;14.49
77418;BMP280;66490;51.484;0.026;2023-07-22T03:34:32;101148.38;;;14.19
77418;BMP280;66490;51.484;0.026;2023-07-22T03:37:16;101182.44;;;14.41
77418;BMP280;66490;51.484;0.026;2023-07-22T03:40:05;101165.78;;;14.39
77418;BMP280;66490;51.484;0.026;2023-07-22T03:43:01;101177.81;;;14.38
77418;BMP280;66490;51.484;0.026;2023-07-22T03:45:46;101140.59;;;14.24
77418;BMP280;66490;51.484;0.026;2023-07-22T03:48:30;101130.53;;;14.18
77418;BMP280;66490;51.484;0.026;2023-07-22T03:51:14;101168.50;;;14.36
77418;BMP280;66490;51.484;0.026;2023-07-22T03:53:59;101142.19;;;14.22
77418;BMP280;66490;51.484;0.026;2023-07-22T03:56:43;101140.63;;;14.21
77418;BMP280;66490;51.484;0.026;2023-07-22T03:59:28;101167.34;;;14.33
77418;BMP280;66490;51.484;0.026;2023-07-22T04:02:12;101150.66;;;14.38
77418;BMP280;66490;51.484;0.026;2023-07-22T04:04:58;101156.09;;;14.35
77418;BMP280;66490;51.484;0.026;2023-07-22T04:07:44;101183.22;;;14.45
77418;BMP280;66490;51.484;0.026;2023-07-22T04:10:29;101163.06;;;14.32
77418;BMP280;66490;51.484;0.026;2023-07-22T04:13:22;101149.09;;;14.30
77418;BMP280;66490;51.484;0.026;2023-07-22T04:16:12;101187.84;;;14.55
77418;BMP280;66490;51.484;0.026;2023-07-22T04:19:00;101144.44;;;14.31
77418;BMP280;66490;51.484;0.026;2023-07-22T04:21:47;101146.38;;;14.34
77418;BMP280;66490;51.484;0.026;2023-07-22T04:24:33;101144.44;;;14.31
77418;BMP280;66490;51.484;0.026;2023-07-22T04:27:17;101140.97;;;14.37
77418;BMP280;66490;51.484;0.026;2023-07-22T04:30:01;101139.78;;;14.38
77418;BMP280;66490;51.484;0.026;2023-07-22T04:32:51;101123.91;;;14.26
77418;BMP280;66490;51.484;0.026;2023-07-22T04:35:38;101164.53;;;14.54
77418;BMP280;66490;51.484;0.026;2023-07-22T04:38:35;101142.47;;;14.45
77418;BMP280;66490;51.484;0.026;2023-07-22T04:41:29;101161.78;;;14.69
77418;BMP280;66490;51.484;0.026;2023-07-22T04:44:28;101142.81;;;14.61
77418;BMP280;66490;51.484;0.026;2023-07-22T04:47:12;101116.50;;;14.44
77418;BMP280;66490;51.484;0.026;2023-07-22T04:50:03;101126.94;;;14.56
77418;BMP280;66490;51.484;0.026;2023-07-22T04:52:52;101151.66;;;14.76
77418;BMP280;66490;51.484;0.026;2023-07-22T04:55:40;101142.72;;;14.76
77418;BMP280;66490;51.484;0.026;2023-07-22T04:58:24;101123.34;;;14.70
77418;BMP280;66490;51.484;0.026;2023-07-22T05:01:09;101108.63;;;14.68
77418;BMP280;66490;51.484;0.026;2023-07-22T05:03:53;101151.19;;;14.92
77418;BMP280;66490;51.484;0.026;2023-07-22T05:06:39;101135.69;;;14.82
77418;BMP280;66490;51.484;0.026;2023-07-22T05:09:23;101099.66;;;14.71
77418;BMP280;66490;51.484;0.026;2023-07-22T05:12:08;101115.47;;;14.90
77418;BMP280;66490;51.484;0.026;2023-07-22T05:14:53;101122.44;;;14.98
77418;BMP280;66490;51.484;0.026;2023-07-22T05:17:37;101129.34;;;15.06
77418;BMP280;66490;51.484;0.026;2023-07-22T05:20:21;101113.50;;;14.94
77418;BMP280;66490;51.484;0.026;2023-07-22T05:23:06;101120.84;;;15.00
77418;BMP280;66490;51.484;0.026;2023-07-22T05:25:54;101096.00;;;14.95
77418;BMP280;66490;51.484;0.026;2023-07-22T05:28:38;101130.00;;;15.24
77418;BMP280;66490;51.484;0.026;2023-07-22T05:31:26;101136.13;;;15.35
77418;BMP280;66490;51.484;0.026;2023-07-22T05:34:15;101139.19;;;15.41
77418;BMP280;66490;51.484;0.026;2023-07-22T05:37:03;101118.25;;;15.34
77418;BMP280;66490;51.484;0.026;2023-07-22T05:39:50;101088.09;;;15.22
77418;BMP280;66490;51.484;0.026;2023-07-22T05:42:37;101085.78;;;15.20
77418;BMP280;66490;51.484;0.026;2023-07-22T05:45:25;101100.47;;;15.26
77418;BMP280;66490;51.484;0.026;2023-07-22T05:48:09;101082.66;;;15.18
77418;BMP280;66490;51.484;0.026;2023-07-22T05:50:55;101100.34;;;15.40
77418;BMP280;66490;51.484;0.026;2023-07-22T05:53:43;101102.63;;;15.46
77418;BMP280;66490;51.484;0.026;2023-07-22T05:56:27;101109.63;;;15.47
77418;BMP280;66490;51.484;0.026;2023-07-22T05:59:11;101117.72;;;15.50
77418;BMP280;66490;51.484;0.026;2023-07-22T06:01:56;101132.78;;;15.65
77418;BMP280;66490;51.484;0.026;2023-07-22T06:04:40;101096.09;;;15.39
77418;BMP280;66490;51.484;0.026;2023-07-22T06:07:25;101124.19;;;15.67
77418;BMP280;66490;51.484;0.026;2023-07-22T06:10:12;101090.97;;;15.49
77418;BMP280;66490;51.484;0.026;2023-07-22T06:12:57;101135.31;;;15.83
77418;BMP280;66490;51.484;0.026;2023-07-22T06:15:43;101111.66;;;15.76
77418;BMP280;66490;51.484;0.026;2023-07-22T06:18:27;101135.16;;;15.97
77418;BMP280;66490;51.484;0.026;2023-07-22T06:21:12;101099.84;;;15.90
77418;BMP280;66490;51.484;0.026;2023-07-22T06:24:05;101103.41;;;15.87
77418;BMP280;66490;51.484;0.026;2023-07-22T06:27:00;101092.16;;;15.85
77418;BMP280;66490;51.484;0.026;2023-07-22T06:29:45;101100.06;;;16.06
77418;BMP280;66490;51.484;0.026;2023-07-22T06:32:30;101108.06;;;16.20
77418;BMP280;66490;51.484;0.026;2023-07-22T06:35:17;101070.63;;;16.28
77418;BMP280;66490;51.484;0.026;2023-07-22T06:38:04;101120.06;;;16.57
77418;BMP280;66490;51.484;0.026;2023-07-22T06:40:51;101067.91;;;16.55
77418;BMP280;66490;51.484;0.026;2023-07-22T06:43:36;101107.00;;;16.98
77418;BMP280;66490;51.484;0.026;2023-07-22T06:46:20;101095.25;;;17.02
77418;BMP280;66490;51.484;0.026;2023-07-22T06:49:08;101074.03;;;16.89
77418;BMP280;66490;51.484;0.026;2023-07-22T06:51:55;101092.53;;;17.02
77418;BMP280;66490;51.484;0.026;2023-07-22T06:54:39;101100.09;;;16.90
77418;BMP280;66490;51.484;0.026;2023-07-22T06:57:24;101121.81;;;16.97
77418;BMP280;66490;51.484;0.026;2023-07-22T07:00:12;101086.59;;;16.83
77418;BMP280;66490;51.484;0.026;2023-07-22T07:02:56;101116.13;;;17.12
77418;BMP280;66490;51.484;0.026;2023-07-22T07:05:43;101121.44;;;17.19
77418;BMP280;66490;51.484;0.026;2023-07-22T07:08:27;101074.63;;;17.00
77418;BMP280;66490;51.484;0.026;2023-07-22T07:11:15;101077.97;;;17.12
77418;BMP280;66490;51.484;0.026;2023-07-22T07:13:59;101078.66;;;17.16
77418;BMP280;66490;51.484;0.026;2023-07-22T07:16:46;101087.13;;;17.21
77418;BMP280;66490;51.484;0.026;2023-07-22T07:19:30;101065.81;;;16.93
77418;BMP280;66490;51.484;0.026;2023-07-22T07:22:18;101101.78;;;17.31
77418;BMP280;66490;51.484;0.026;2023-07-22T07:25:02;101056.91;;;17.12
77418;BMP280;66490;51.484;0.026;2023-07-22T07:27:47;101077.44;;;17.40
77418;BMP280;66490;51.484;0.026;2023-07-22T07:30:33;101100.84;;;17.61
77418;BMP280;66490;51.484;0.026;2023-07-22T07:33:18;101091.63;;;17.74
77418;BMP280;66490;51.484;0.026;2023-07-22T07:36:03;101056.16;;;17.74
77418;BMP280;66490;51.484;0.026;2023-07-22T07:38:47;101074.84;;;17.96
77418;BMP280;66490;51.484;0.026;2023-07-22T07:41:34;101079.44;;;17.99
77418;BMP280;66490;51.484;0.026;2023-07-22T07:44:19;101071.94;;;18.03
77418;BMP280;66490;51.484;0.026;2023-07-22T07:47:20;101089.94;;;18.20
77418;BMP280;66490;51.484;0.026;2023-07-22T07:50:50;101070.63;;;18.11
77418;BMP280;66490;51.484;0.026;2023-07-22T07:53:43;101093.44;;;18.01
77418;BMP280;66490;51.484;0.026;2023-07-22T07:56:28;101074.56;;;17.90
77418;BMP280;66490;51.484;0.026;2023-07-22T07:59:13;101087.13;;;18.04
77418;BMP280;66490;51.484;0.026;2023-07-22T08:02:26;101098.94;;;18.37
77418;BMP280;66490;51.484;0.026;2023-07-22T08:05:12;101053.44;;;18.30
77418;BMP280;66490;51.484;0.026;2023-07-22T08:08:01;101059.06;;;18.39
77418;BMP280;66490;51.484;0.026;2023-07-22T08:10:45;101091.41;;;18.77
77418;BMP280;66490;51.484;0.026;2023-07-22T08:13:30;101094.81;;;18.81
77418;BMP280;66490;51.484;0.026;2023-07-22T08:16:15;101056.50;;;18.48
77418;BMP280;66490;51.484;0.026;2023-07-22T08:19:01;101064.03;;;18.60
77418;BMP280;66490;51.484;0.026;2023-07-22T08:21:46;101052.50;;;18.53
77418;BMP280;66490;51.484;0.026;2023-07-22T08:24:30;101056.50;;;18.48
77418;BMP280;66490;51.484;0.026;2023-07-22T08:27:14;101052.84;;;18.71
77418;BMP280;66490;51.484;0.026;2023-07-22T08:29:59;101064.09;;;18.89
77418;BMP280;66490;51.484;0.026;2023-07-22T08:32:43;101056.53;;;18.81
77418;BMP280;66490;51.484;0.026;2023-07-22T08:35:28;101063.50;;;18.98
77418;BMP280;66490;51.484;0.026;2023-07-22T08:38:28;101059.44;;;19.19
77418;BMP280;66490;51.484;0.026;2023-07-22T08:41:38;101035.41;;;19.10
77418;BMP280;66490;51.484;0.026;2023-07-22T08:44:28;101046.25;;;19.30
77418;BMP280;66490;51.484;0.026;2023-07-22T08:47:20;101038.56;;;19.54
77418;BMP280;66490;51.484;0.026;2023-07-22T08:50:16;101053.25;;;19.72
77418;BMP280;66490;51.484;0.026;2023-07-22T08:53:13;101053.41;;;19.94
77418;BMP280;66490;51.484;0.026;2023-07-22T08:56:10;101027.53;;;19.70
77418;BMP280;66490;51.484;0.026;2023-07-22T08:59:02;100998.16;;;19.58
77418;BMP280;66490;51.484;0.026;2023-07-22T09:05:34;101002.78;;;20.11
77418;BMP280;66490;51.484;0.026;2023-07-22T09:08:31;100991.72;;;19.90
77418;BMP280;66490;51.484;0.026;2023-07-22T09:11:23;101005.19;;;20.09
77418;BMP280;66490;51.484;0.026;2023-07-22T09:14:30;101035.78;;;19.95
77418;BMP280;66490;51.484;0.026;2023-07-22T09:17:35;100995.09;;;19.56
77418;BMP280;66490;51.484;0.026;2023-07-22T09:20:20;101029.53;;;19.40
77418;BMP280;66490;51.484;0.026;2023-07-22T09:23:15;101004.81;;;19.15
77418;BMP280;66490;51.484;0.026;2023-07-22T09:26:13;100991.56;;;18.85
77418;BMP280;66490;51.484;0.026;2023-07-22T09:29:18;101038.22;;;18.94
77418;BMP280;66490;51.484;0.026;2023-07-22T09:46:47;101000.56;;;18.37
77418;BMP280;66490;51.484;0.026;2023-07-22T09:49:54;101049.50;;;18.80
77418;BMP280;66490;51.484;0.026;2023-07-22T09:56:23;101028.31;;;18.84
77418;BMP280;66490;51.484;0.026;2023-07-22T09:59:28;100995.31;;;18.91
77418;BMP280;66490;51.484;0.026;2023-07-22T10:02:18;100989.44;;;19.05
77418;BMP280;66490;51.484;0.026;2023-07-22T10:05:59;101037.94;;;19.33
77418;BMP280;66490;51.484;0.026;2023-07-22T10:09:11;101026.44;;;19.26
77418;BMP280;66490;51.484;0.026;2023-07-22T10:15:25;100992.22;;;19.47
77418;BMP280;66490;51.484;0.026;2023-07-22T10:18:32;101017.34;;;19.58
77418;BMP280;66490;51.484;0.026;2023-07-22T10:21:19;101018.31;;;19.64
77418;BMP280;66490;51.484;0.026;2023-07-22T10:24:13;100988.69;;;19.46
77418;BMP280;66490;51.484;0.026;2023-07-22T10:27:02;101015.25;;;19.62
77418;BMP280;66490;51.484;0.026;2023-07-22T10:34:21;101009.97;;;19.55
77418;BMP280;66490;51.484;0.026;2023-07-22T10:37:18;100990.41;;;19.27
77418;BMP280;66490;51.484;0.026;2023-07-22T10:43:35;100975.94;;;19.14
77418;BMP280;66490;51.484;0.026;2023-07-22T10:46:38;100989.25;;;19.41
77418;BMP280;66490;51.484;0.026;2023-07-22T10:49:47;100975.69;;;19.50
77418;BMP280;66490;51.484;0.026;2023-07-22T11:00:28;100986.13;;;20.18
77418;BMP280;66490;51.484;0.026;2023-07-22T11:21:12;100962.81;;;20.36
77418;BMP280;66490;51.484;0.026;2023-07-22T11:23:56;100981.72;;;20.34
77418;BMP280;66490;51.484;0.026;2023-07-22T11:30:10;100972.94;;;20.39
77418;BMP280;66490;51.484;0.026;2023-07-22T11:36:32;100963.31;;;20.68
77418;BMP280;66490;51.484;0.026;2023-07-22T11:39:24;100958.31;;;20.76
77418;BMP280;66490;51.484;0.026;2023-07-22T11:42:24;100937.03;;;20.58
77418;BMP280;66490;51.484;0.026;2023-07-22T11:45:19;100922.72;;;20.42
77418;BMP280;66490;51.484;0.026;2023-07-22T11:48:09;100916.09;;;20.17
77418;BMP280;66490;51.484;0.026;2023-07-22T11:51:14;100947.31;;;20.07
77418;BMP280;66490;51.484;0.026;2023-07-22T11:54:38;100943.19;;;19.65
77418;BMP280;66490;51.484;0.026;2023-07-22T11:57:40;100937.91;;;19.32
77418;BMP280;66490;51.484;0.026;2023-07-22T12:00:26;100939.34;;;19.08
77418;BMP280;66490;51.484;0.026;2023-07-22T12:03:13;100971.31;;;19.11
77418;BMP280;66490;51.484;0.026;2023-07-22T12:06:06;100924.97;;;18.63
77418;BMP280;66490;51.484;0.026;2023-07-22T12:09:35;100958.88;;;18.49
77418;BMP280;66490;51.484;0.026;2023-07-22T12:12:37;100931.69;;;17.77
77418;BMP280;66490;51.484;0.026;2023-07-22T12:15:26;100936.69;;;17.62
77418;BMP280;66490;51.484;0.026;2023-07-22T12:18:11;100954.91;;;17.49
77418;BMP280;66490;51.484;0.026;2023-07-22T12:20:57;100981.47;;;17.45
77418;BMP280;66490;51.484;0.026;2023-07-22T12:23:47;100962.66;;;17.11
77418;BMP280;66490;51.484;0.026;2023-07-22T12:26:43;100941.53;;;16.72
77418;BMP280;66490;51.484;0.026;2023-07-22T12:29:28;100988.81;;;16.85
77418;BMP280;66490;51.484;0.026;2023-07-22T12:32:12;100961.91;;;16.64
77418;BMP280;66490;51.484;0.026;2023-07-22T12:34:56;100946.63;;;16.47
77418;BMP280;66490;51.484;0.026;2023-07-22T12:37:42;100978.91;;;16.48
77418;BMP280;66490;51.484;0.026;2023-07-22T12:40:33;100937.03;;;16.12
77418;BMP280;66490;51.484;0.026;2023-07-22T12:43:17;100975.78;;;16.23
77418;BMP280;66490;51.484;0.026;2023-07-22T12:46:09;100944.97;;;15.99
77418;BMP280;66490;51.484;0.026;2023-07-22T12:49:07;100948.22;;;15.91
77418;BMP280;66490;51.484;0.026;2023-07-22T12:52:41;100938.25;;;15.80
77418;BMP280;66490;51.484;0.026;2023-07-22T13:07:58;100957.69;;;15.79
77418;BMP280;66490;51.484;0.026;2023-07-22T13:11:23;100909.06;;;15.51
77418;BMP280;66490;51.484;0.026;2023-07-22T13:14:46;100956.53;;;15.80
77418;BMP280;66490;51.484;0.026;2023-07-22T13:22:22;100942.19;;;15.76
77418;BMP280;66490;51.484;0.026;2023-07-22T13:26:19;100885.06;;;15.46
77418;BMP280;66490;51.484;0.026;2023-07-22T14:07:34;100855.38;;;15.85
77418;BMP280;66490;51.484;0.026;2023-07-22T14:10:17;100854.44;;;15.95
77418;BMP280;66490;51.484;0.026;2023-07-22T14:13:01;100868.34;;;16.28
77418;BMP280;66490;51.484;0.026;2023-07-22T14:16:11;100866.25;;;16.35
77418;BMP280;66490;51.484;0.026;2023-07-22T14:19:10;100863.47;;;16.39
77418;BMP280;66490;51.484;0.026;2023-07-22T14:28:33;100856.59;;;16.54
77418;BMP280;66490;51.484;0.026;2023-07-22T14:31:56;100855.06;;;16.30
77418;BMP280;66490;51.484;0.026;2023-07-22T14:34:48;100817.31;;;16.08
77418;BMP280;66490;51.484;0.026;2023-07-22T14:41:57;100806.22;;;15.96
77418;BMP280;66490;51.484;0.026;2023-07-22T14:45:41;100811.22;;;16.01
77418;BMP280;66490;51.484;0.026;2023-07-22T14:48:55;100796.91;;;15.70
77418;BMP280;66490;51.484;0.026;2023-07-22T14:55:17;100826.84;;;15.70
77418;BMP280;66490;51.484;0.026;2023-07-22T14:58:11;100816.50;;;15.58
77418;BMP280;66490;51.484;0.026;2023-07-22T15:01:35;100788.16;;;15.28
77418;BMP280;66490;51.484;0.026;2023-07-22T15:04:54;100836.09;;;15.46
77418;BMP280;66490;51.484;0.026;2023-07-22T15:11:13;100789.75;;;15.26
77418;BMP280;66490;51.484;0.026;2023-07-22T15:17:06;100811.22;;;15.47
77418;BMP280;66490;51.484;0.026;2023-07-22T15:20:12;100808.81;;;15.53
77418;BMP280;66490;51.484;0.026;2023-07-22T15:27:08;100752.31;;;15.37
77418;BMP280;66490;51.484;0.026;2023-07-22T15:34:03;100742.88;;;15.45
77418;BMP280;66490;51.484;0.026;2023-07-22T15:37:12;100783.09;;;15.84
77418;BMP280;66490;51.484;0.026;2023-07-22T15:40:00;100769.63;;;15.73
77418;BMP280;66490;51.484;0.026;2023-07-22T15:46:13;100786.31;;;16.02
77418;BMP280;66490;51.484;0.026;2023-07-22T15:49:04;100730.28;;;15.78
77418;BMP280;66490;51.484;0.026;2023-07-22T15:52:01;100779.03;;;16.15
77418;BMP280;66490;51.484;0.026;2023-07-22T15:54:49;100735.38;;;15.99
77418;BMP280;66490;51.484;0.026;2023-07-22T16:01:50;100742.75;;;16.02
77418;BMP280;66490;51.484;0.026;2023-07-22T16:04:58;100728.78;;;16.00
77418;BMP280;66490;51.484;0.026;2023-07-22T16:15:13;100708.06;;;15.83
77418;BMP280;66490;51.484;0.026;2023-07-22T16:18:21;100698.81;;;15.80
77418;BMP280;66490;51.484;0.026;2023-07-22T16:21:36;100701.91;;;15.79
77418;BMP280;66490;51.484;0.026;2023-07-22T16:24:24;100692.69;;;15.73
77418;BMP280;66490;51.484;0.026;2023-07-22T16:27:39;100700.84;;;15.73
77418;BMP280;66490;51.484;0.026;2023-07-22T16:34:02;100718.22;;;15.83
77418;BMP280;66490;51.484;0.026;2023-07-22T16:36:49;100708.88;;;15.57
77418;BMP280;66490;51.484;0.026;2023-07-22T16:39:58;100695.34;;;15.53
77418;BMP280;66490;51.484;0.026;2023-07-22T16:42:42;100673.81;;;15.39
77418;BMP280;66490;51.484;0.026;2023-07-22T16:46:15;100712.28;;;15.64
77418;BMP280;66490;51.484;0.026;2023-07-22T17:09:11;100687.44;;;15.62
77418;BMP280;66490;51.484;0.026;2023-07-22T17:11:58;100650.41;;;15.45
77418;BMP280;66490;51.484;0.026;2023-07-22T17:14:59;100650.34;;;15.49
77418;BMP280;66490;51.484;0.026;2023-07-22T17:17:53;100674.81;;;15.72
77418;BMP280;66490;51.484;0.026;2023-07-22T17:20:57;100627.72;;;15.55
77418;BMP280;66490;51.484;0.026;2023-07-22T17:33:10;100587.63;;;15.36
77418;BMP280;66490;51.484;0.026;2023-07-22T17:36:04;100648.38;;;15.72
77418;BMP280;66490;51.484;0.026;2023-07-22T17:49:40;100579.66;;;15.49
77418;BMP280;66490;51.484;0.026;2023-07-22T17:52:38;100581.19;;;15.50
77418;BMP280;66490;51.484;0.026;2023-07-22T18:06:05;100610.25;;;15.76
77418;BMP280;66490;51.484;0.026;2023-07-22T18:09:30;100557.03;;;15.52
77418;BMP280;66490;51.484;0.026;2023-07-22T18:18:31;100594.22;;;15.82
77418;BMP280;66490;51.484;0.026;2023-07-22T18:21:20;100590.31;;;15.83
77418;BMP280;66490;51.484;0.026;2023-07-22T18:24:07;100570.81;;;15.64
77418;BMP280;66490;51.484;0.026;2023-07-22T18:26:53;100571.59;;;15.65
77418;BMP280;66490;51.484;0.026;2023-07-22T18:29:40;100591.53;;;15.78
77418;BMP280;66490;51.484;0.026;2023-07-22T18:32:30;100558.31;;;15.67
77418;BMP280;66490;51.484;0.026;2023-07-22T18:35:26;100554.59;;;15.61
77418;BMP280;66490;51.484;0.026;2023-07-22T18:38:13;100572.66;;;15.71
77418;BMP280;66490;51.484;0.026;2023-07-22T18:40:57;100556.47;;;15.64
77418;BMP280;66490;51.484;0.026;2023-07-22T18:43:42;100561.41;;;15.69
77418;BMP280;66490;51.484;0.026;2023-07-22T18:46:29;100570.97;;;15.77
77418;BMP280;66490;51.484;0.026;2023-07-22T18:49:26;100536.81;;;15.53
77418;BMP280;66490;51.484;0.026;2023-07-22T18:52:30;100572.78;;;15.84
77418;BMP280;66490;51.484;0.026;2023-07-22T18:55:26;100547.44;;;15.67
77418;BMP280;66490;51.484;0.026;2023-07-22T18:58:24;100518.16;;;15.55
77418;BMP280;66490;51.484;0.026;2023-07-22T19:01:11;100578.84;;;15.91
77418;BMP280;66490;51.484;0.026;2023-07-22T19:07:00;100515.66;;;15.64
77418;BMP280;66490;51.484;0.026;2023-07-22T19:09:45;100529.53;;;15.69
77418;BMP280;66490;51.484;0.026;2023-07-22T19:18:17;100518.81;;;15.82
77418;BMP280;66490;51.484;0.026;2023-07-22T19:33:04;100519.97;;;16.01
77418;BMP280;66490;51.484;0.026;2023-07-22T19:36:09;100510.22;;;16.03
77418;BMP280;66490;51.484;0.026;2023-07-22T19:38:58;100534.38;;;16.17
77418;BMP280;66490;51.484;0.026;2023-07-22T19:42:04;100514.63;;;16.13
77418;BMP280;66490;51.484;0.026;2023-07-22T19:48:03;100481.44;;;16.02
77418;BMP280;66490;51.484;0.026;2023-07-22T19:51:04;100493.78;;;16.07
77418;BMP280;66490;51.484;0.026;2023-07-22T19:54:01;100485.34;;;16.01
77418;BMP280;66490;51.484;0.026;2023-07-22T19:56:55;100505.34;;;16.11
77418;BMP280;66490;51.484;0.026;2023-07-22T19:59:43;100489.78;;;16.11
77418;BMP280;66490;51.484;0.026;2023-07-22T20:02:28;100498.22;;;16.17
77418;BMP280;66490;51.484;0.026;2023-07-22T20:05:17;100501.66;;;16.21
77418;BMP280;66490;51.484;0.026;2023-07-22T20:08:06;100466.38;;;15.98
77418;BMP280;66490;51.484;0.026;2023-07-22T20:10:53;100470.97;;;16.01
77418;BMP280;66490;51.484;0.026;2023-07-22T20:13:46;100455.13;;;15.96
77418;BMP280;66490;51.484;0.026;2023-07-22T20:16:33;100496.47;;;16.27
77418;BMP280;66490;51.484;0.026;2023-07-22T20:19:20;100501.91;;;16.27
77418;BMP280;66490;51.484;0.026;2023-07-22T20:22:12;100468.53;;;16.06
77418;BMP280;66490;51.484;0.026;2023-07-22T20:25:43;100502.66;;;16.27
77418;BMP280;66490;51.484;0.026;2023-07-22T20:41:26;100492.72;;;16.20
77418;BMP280;66490;51.484;0.026;2023-07-22T20:44:29;100480.53;;;16.09
77418;BMP280;66490;51.484;0.026;2023-07-22T20:55:09;100467.25;;;16.11
77418;BMP280;66490;51.484;0.026;2023-07-22T20:58:27;100460.34;;;16.06
77418;BMP280;66490;51.484;0.026;2023-07-22T21:05:07;100448.09;;;15.98
77418;BMP280;66490;51.484;0.026;2023-07-22T21:07:54;100485.72;;;16.19
77418;BMP280;66490;51.484;0.026;2023-07-22T21:10:41;100439.56;;;15.96
77418;BMP280;66490;51.484;0.026;2023-07-22T21:22:55;100457.47;;;16.13
77418;BMP280;66490;51.484;0.026;2023-07-22T21:32:25;100460.88;;;16.17